Pinetown, Pennsylvania
Current Conditions -  °F | °C
As of 7:56 AM on Thursday 18 Dec 2014 (Local Time) from KCXY Reporting Station
Overcast Overcast  
Wind Chill: 25°   Ceiling: 3700
Heat Index: 34°   Visibility: 10mi
Dew Point: 20°   Wind: 12mph
Humidity: 56%   Direction: 290°WNW
Pressure: 30.11"   Gusts: 22mph
Location:  40.1328°N, 76.8833°W
Report Text: KCXY 181256Z 29010G19KT 10SM OVC037 01/M07 A3011 RMK AO2 SLP200 T00111067
Loading
Personal Weather Stations






























Interactive Weather Map New forecast layout! Learn more

10-Day Weather Forecast

Advertisements
Track Severe Weather on mobile